createdAt,value
2019-03-29T00:00:07.627Z,40.83
2019-03-29T00:02:37.050Z,41.77
2019-03-29T00:05:06.308Z,41.86
2019-03-29T00:07:39.978Z,42.43
2019-03-29T00:10:07.211Z,42.44
2019-03-29T00:12:36.348Z,42.63
2019-03-29T00:15:05.901Z,43.10
2019-03-29T00:17:35.078Z,42.81
2019-03-29T00:20:06.209Z,43.21
2019-03-29T00:22:35.282Z,43.74
2019-03-29T00:25:04.554Z,43.74
2019-03-29T00:27:33.700Z,44.29
2019-03-29T00:30:02.870Z,44.35
2019-03-29T00:32:32.258Z,43.90
2019-03-29T00:35:01.402Z,43.97
2019-03-29T00:37:30.517Z,43.97
2019-03-29T00:39:59.910Z,43.63
2019-03-29T00:42:29.042Z,42.87
2019-03-29T00:44:58.169Z,43.09
2019-03-29T00:47:27.644Z,42.66
2019-03-29T00:49:56.824Z,42.56
2019-03-29T00:52:26.021Z,41.55
2019-03-29T00:54:55.410Z,41.84
2019-03-29T00:57:25.294Z,41.84
2019-03-29T00:59:54.444Z,42.78
2019-03-29T01:02:24.409Z,42.78
2019-03-29T01:04:54.876Z,43.09
2019-03-29T01:07:24.138Z,43.68
2019-03-29T01:09:53.275Z,43.22
2019-03-29T01:12:22.673Z,43.22
2019-03-29T01:14:52.612Z,43.87
2019-03-29T01:17:22.030Z,42.39
2019-03-29T01:19:51.248Z,42.03
2019-03-29T01:22:20.425Z,42.03
2019-03-29T01:24:49.889Z,42.27
2019-03-29T01:27:19.271Z,42.16
2019-03-29T01:29:48.570Z,41.61
2019-03-29T01:32:17.810Z,43.21
2019-03-29T01:34:47.692Z,41.23
2019-03-29T01:37:16.950Z,41.23
2019-03-29T01:39:46.361Z,41.30
2019-03-29T01:42:15.526Z,41.15
2019-03-29T01:44:44.965Z,42.05
2019-03-29T01:47:14.427Z,41.73
2019-03-29T01:49:43.607Z,41.73
2019-03-29T01:52:12.795Z,41.31
2019-03-29T01:54:41.959Z,41.37
2019-03-29T01:57:11.172Z,41.45
2019-03-29T01:59:40.554Z,42.71
2019-03-29T02:02:09.949Z,42.71
2019-03-29T02:04:39.109Z,42.17
2019-03-29T02:07:08.937Z,42.17
2019-03-29T02:09:38.344Z,43.24
2019-03-29T02:12:07.584Z,42.32
2019-03-29T02:14:37.071Z,42.32
2019-03-29T02:17:06.199Z,42.09
2019-03-29T02:19:35.361Z,41.88
2019-03-29T02:22:04.568Z,42.49
2019-03-29T02:24:34.072Z,42.51
2019-03-29T02:27:03.759Z,42.51
2019-03-29T02:29:32.885Z,42.35
2019-03-29T02:32:02.037Z,42.77
2019-03-29T02:34:32.169Z,42.77
2019-03-29T02:37:02.211Z,43.28
2019-03-29T02:39:31.774Z,43.28
2019-03-29T02:42:00.944Z,43.26
2019-03-29T02:44:30.306Z,43.30
2019-03-29T02:46:59.791Z,44.62
2019-03-29T02:49:28.957Z,43.97
2019-03-29T02:51:58.123Z,44.90
2019-03-29T02:54:27.271Z,44.87
2019-03-29T02:56:56.444Z,45.17
2019-03-29T02:59:25.944Z,44.61
2019-03-29T03:01:55.805Z,44.83
2019-03-29T03:04:24.983Z,45.56
2019-03-29T03:06:54.168Z,46.15
2019-03-29T03:09:23.573Z,45.47
2019-03-29T03:11:52.767Z,45.74
2019-03-29T03:14:22.250Z,46.33
2019-03-29T03:16:51.522Z,45.46
2019-03-29T03:19:20.969Z,45.94
2019-03-29T03:21:50.380Z,46.09
2019-03-29T03:24:19.939Z,46.47
2019-03-29T03:26:49.369Z,46.82
2019-03-29T03:29:18.533Z,45.96
2019-03-29T03:31:47.677Z,45.79
2019-03-29T03:34:17.085Z,45.98
2019-03-29T03:36:46.225Z,46.17
2019-03-29T03:39:30.673Z,45.95
2019-03-29T03:41:46.466Z,45.96
2019-03-29T03:44:16.201Z,47.72
2019-03-29T03:46:45.376Z,47.13
2019-03-29T03:49:14.553Z,47.67
2019-03-29T03:51:43.849Z,47.24
2019-03-29T03:54:13.058Z,46.83
2019-03-29T03:56:42.735Z,46.63
2019-03-29T03:59:12.098Z,47.10
2019-03-29T04:01:41.298Z,47.80
2019-03-29T04:04:10.546Z,46.89
2019-03-29T04:06:39.896Z,46.38
2019-03-29T04:09:09.298Z,47.58
2019-03-29T04:11:38.481Z,46.52
2019-03-29T04:14:07.905Z,46.45
2019-03-29T04:16:37.081Z,48.19
2019-03-29T04:19:06.227Z,47.85
2019-03-29T04:21:35.357Z,47.30
2019-03-29T04:24:04.733Z,47.36
2019-03-29T04:26:33.892Z,46.83
2019-03-29T04:29:05.329Z,46.93
2019-03-29T04:31:34.865Z,46.91
2019-03-29T04:34:04.259Z,47.05
2019-03-29T04:36:34.144Z,47.37
2019-03-29T04:39:05.603Z,47.63
2019-03-29T04:41:34.733Z,47.30
2019-03-29T04:44:04.303Z,47.28
2019-03-29T04:46:33.434Z,47.12
2019-03-29T04:49:02.653Z,46.93
2019-03-29T04:51:31.829Z,46.27
2019-03-29T04:54:01.008Z,47.97
2019-03-29T04:56:30.642Z,46.89
2019-03-29T04:58:59.816Z,47.80
2019-03-29T05:01:28.978Z,48.55
2019-03-29T05:03:58.228Z,47.38
2019-03-29T05:06:27.719Z,47.11
2019-03-29T05:08:56.960Z,48.45
2019-03-29T05:11:26.131Z,47.93
2019-03-29T05:13:55.333Z,47.65
2019-03-29T05:16:24.540Z,47.59
2019-03-29T05:18:53.726Z,47.50
2019-03-29T05:21:22.893Z,48.78
2019-03-29T05:23:52.127Z,47.12
2019-03-29T05:26:21.289Z,47.98
2019-03-29T05:28:50.874Z,47.47
2019-03-29T05:31:20.019Z,47.44
2019-03-29T05:33:49.321Z,47.01
2019-03-29T05:36:18.470Z,47.27
2019-03-29T05:38:47.876Z,47.86
2019-03-29T05:41:17.278Z,46.65
2019-03-29T05:43:46.538Z,46.62
2019-03-29T05:46:16.508Z,47.02
2019-03-29T05:48:45.629Z,47.45
2019-03-29T05:51:14.859Z,46.72
2019-03-29T05:53:44.610Z,46.77
2019-03-29T05:56:14.811Z,46.44
2019-03-29T05:58:44.564Z,46.58
2019-03-29T06:01:13.943Z,47.30
2019-03-29T06:03:43.464Z,47.03
2019-03-29T06:06:12.588Z,46.54
2019-03-29T06:08:41.796Z,46.19
2019-03-29T06:11:11.196Z,45.92
2019-03-29T06:13:40.349Z,45.53
2019-03-29T06:16:09.496Z,46.07
2019-03-29T06:18:38.740Z,45.39
2019-03-29T06:21:07.887Z,48.05
2019-03-29T06:23:37.186Z,48.07
2019-03-29T06:26:06.502Z,47.57
2019-03-29T06:28:35.745Z,46.23
2019-03-29T06:31:05.238Z,46.27
2019-03-29T06:33:34.670Z,44.85
2019-03-29T06:36:05.448Z,44.98
2019-03-29T06:38:35.549Z,45.09
2019-03-29T06:41:04.760Z,39.40
2019-03-29T06:43:34.117Z,36.58
2019-03-29T06:46:03.576Z,33.99
2019-03-29T06:48:32.946Z,33.44
2019-03-29T06:51:02.378Z,32.26
2019-03-29T06:53:31.526Z,30.16
2019-03-29T06:56:00.934Z,28.71
2019-03-29T06:58:30.082Z,27.86
2019-03-29T07:00:59.292Z,26.68
2019-03-29T07:03:28.973Z,26.01
2019-03-29T07:05:58.248Z,23.91
2019-03-29T07:08:27.694Z,24.77
2019-03-29T07:10:56.819Z,24.31
2019-03-29T07:13:27.276Z,24.80
2019-03-29T07:15:56.432Z,24.61
2019-03-29T07:18:25.580Z,23.66
2019-03-29T07:20:55.134Z,22.02
2019-03-29T07:23:24.614Z,21.53
2019-03-29T07:25:56.399Z,22.04
2019-03-29T07:28:24.940Z,20.16
2019-03-29T07:30:54.389Z,20.27
2019-03-29T07:33:23.597Z,20.78
2019-03-29T07:35:52.984Z,21.63
2019-03-29T07:38:22.166Z,24.13
2019-03-29T07:40:51.363Z,21.56
2019-03-29T07:43:26.515Z,19.48
2019-03-29T07:45:55.682Z,19.55
2019-03-29T07:48:25.013Z,18.64
2019-03-29T07:50:54.408Z,22.56
2019-03-29T07:53:23.815Z,23.14
2019-03-29T07:55:53.701Z,22.07
2019-03-29T07:58:23.256Z,20.60
2019-03-29T08:00:52.461Z,19.74
2019-03-29T08:03:23.474Z,21.54
2019-03-29T08:05:53.227Z,20.22
2019-03-29T08:08:25.737Z,20.66
2019-03-29T08:10:54.279Z,22.52
2019-03-29T08:13:23.465Z,20.95
2019-03-29T08:15:52.927Z,21.72
2019-03-29T08:18:22.104Z,21.49
2019-03-29T08:20:51.582Z,20.22
2019-03-29T08:23:20.748Z,19.48
2019-03-29T08:25:50.072Z,19.19
2019-03-29T08:28:19.512Z,20.46
2019-03-29T08:30:48.639Z,20.08
2019-03-29T08:33:18.274Z,20.05
2019-03-29T08:35:47.607Z,20.64
2019-03-29T08:38:17.077Z,17.85
2019-03-29T08:40:46.309Z,18.76
2019-03-29T08:43:15.463Z,17.50
2019-03-29T08:45:44.652Z,19.23
2019-03-29T08:48:13.893Z,18.38
2019-03-29T08:50:43.074Z,16.68
2019-03-29T08:53:12.246Z,19.02
2019-03-29T08:55:46.010Z,19.28
2019-03-29T08:58:13.141Z,18.46
2019-03-29T09:00:42.641Z,17.65
2019-03-29T09:07:09.779Z,18.53
2019-03-29T09:09:39.309Z,18.96
2019-03-29T09:12:14.783Z,18.19
2019-03-29T09:14:40.760Z,19.77
2019-03-29T09:17:11.553Z,19.35
2019-03-29T09:19:40.824Z,17.86
2019-03-29T09:22:10.160Z,18.44
2019-03-29T09:24:39.605Z,17.92
2019-03-29T09:27:09.389Z,18.16
2019-03-29T09:29:38.864Z,17.32
2019-03-29T09:32:09.211Z,16.40
2019-03-29T09:34:40.595Z,17.83
2019-03-29T09:37:09.986Z,18.41
2019-03-29T09:39:39.668Z,18.33
2019-03-29T09:42:10.108Z,17.07
2019-03-29T09:44:39.701Z,17.20
2019-03-29T09:47:08.919Z,15.60
2019-03-29T09:49:38.993Z,15.82
2019-03-29T09:52:08.672Z,15.97
2019-03-29T09:54:37.966Z,16.68
2019-03-29T09:57:10.077Z,17.55
2019-03-29T09:59:39.780Z,17.56
2019-03-29T10:02:09.113Z,17.67
2019-03-29T10:04:38.354Z,17.63
2019-03-29T10:07:07.887Z,16.28
2019-03-29T10:09:39.635Z,15.63
2019-03-29T10:12:09.157Z,17.19
2019-03-29T10:14:38.492Z,16.22
2019-03-29T10:17:07.736Z,16.23
2019-03-29T10:19:39.237Z,18.55
2019-03-29T10:22:10.081Z,16.92
2019-03-29T10:24:39.660Z,16.00
2019-03-29T10:27:12.591Z,16.95
2019-03-29T10:29:46.887Z,16.90
2019-03-29T10:32:19.218Z,16.89
2019-03-29T10:34:52.730Z,18.53
2019-03-29T10:37:22.949Z,17.86
2019-03-29T10:39:52.516Z,18.51
2019-03-29T10:42:24.105Z,18.75
2019-03-29T10:44:53.711Z,18.93
2019-03-29T10:47:42.041Z,16.72
2019-03-29T10:50:01.861Z,17.22
2019-03-29T10:52:33.701Z,16.51
2019-03-29T10:55:09.282Z,16.90
2019-03-29T10:57:39.523Z,18.48
2019-03-29T11:00:13.192Z,18.29
2019-03-29T11:02:42.776Z,17.65
2019-03-29T11:05:12.185Z,18.36
2019-03-29T11:07:41.922Z,17.63
2019-03-29T11:10:15.235Z,18.09
2019-03-29T11:12:44.894Z,18.38
2019-03-29T11:15:14.298Z,19.00
2019-03-29T11:17:46.023Z,17.87
2019-03-29T11:20:18.514Z,18.15
2019-03-29T11:22:46.314Z,18.38
2019-03-29T11:25:15.758Z,19.96
2019-03-29T11:27:45.015Z,18.93
2019-03-29T11:30:14.578Z,19.01
2019-03-29T11:32:44.124Z,19.52
2019-03-29T11:35:13.514Z,20.11
2019-03-29T11:37:43.067Z,20.29
2019-03-29T11:40:14.037Z,20.16
2019-03-29T11:42:43.362Z,20.16
2019-03-29T11:45:13.600Z,20.54
2019-03-29T11:47:42.905Z,19.07
2019-03-29T11:50:12.503Z,18.70
2019-03-29T11:52:43.018Z,18.31
2019-03-29T11:55:12.437Z,18.29
2019-03-29T11:57:41.796Z,18.65
2019-03-29T12:00:11.391Z,18.87
2019-03-29T12:02:40.909Z,18.60
2019-03-29T12:05:10.412Z,18.76
2019-03-29T12:07:40.395Z,17.64
2019-03-29T12:10:10.167Z,18.04
2019-03-29T12:12:40.016Z,17.90
2019-03-29T12:15:09.714Z,19.62
2019-03-29T12:17:39.788Z,18.17
2019-03-29T12:20:09.618Z,18.71
2019-03-29T12:22:40.124Z,17.81
2019-03-29T12:25:09.502Z,18.55
2019-03-29T12:27:40.057Z,19.26
2019-03-29T12:30:10.211Z,19.95
2019-03-29T12:32:39.801Z,21.24
2019-03-29T12:35:10.228Z,23.08
2019-03-29T12:37:39.567Z,22.97
2019-03-29T12:40:09.440Z,23.26
2019-03-29T12:42:38.622Z,24.34
2019-03-29T12:45:09.017Z,24.69
2019-03-29T12:47:38.228Z,24.91
2019-03-29T12:50:08.563Z,26.65
2019-03-29T12:52:38.231Z,24.95
2019-03-29T12:55:08.293Z,26.15
2019-03-29T12:57:39.086Z,28.35
2019-03-29T13:00:09.978Z,27.03
2019-03-29T13:02:39.381Z,26.88
2019-03-29T13:05:08.834Z,27.82
2019-03-29T13:07:38.273Z,27.05
2019-03-29T13:10:08.134Z,27.28
2019-03-29T13:12:37.461Z,27.13
2019-03-29T13:15:06.973Z,29.43
2019-03-29T13:17:36.750Z,27.41
2019-03-29T13:20:06.843Z,27.01
2019-03-29T13:22:36.262Z,27.46
2019-03-29T13:25:07.521Z,25.85
2019-03-29T13:27:37.990Z,25.68
2019-03-29T13:30:08.367Z,27.17
2019-03-29T13:32:37.816Z,25.19
2019-03-29T13:35:08.000Z,26.51
2019-03-29T13:37:37.437Z,25.58
2019-03-29T13:40:08.566Z,26.38
2019-03-29T13:42:37.843Z,25.95
2019-03-29T13:45:07.563Z,26.02
2019-03-29T13:47:36.984Z,25.49
2019-03-29T13:50:08.129Z,27.04
2019-03-29T13:52:38.390Z,27.69
2019-03-29T13:55:08.448Z,27.29
2019-03-29T13:57:37.845Z,25.72
2019-03-29T14:00:08.782Z,26.83
2019-03-29T14:02:38.327Z,26.64
2019-03-29T14:05:10.692Z,26.74
2019-03-29T14:07:39.964Z,25.62
2019-03-29T14:10:10.345Z,27.29
2019-03-29T14:12:39.888Z,26.70
2019-03-29T14:15:10.419Z,26.57
2019-03-29T14:17:40.168Z,26.74
2019-03-29T14:20:11.185Z,26.43
2019-03-29T14:22:40.417Z,26.25
2019-03-29T14:25:10.203Z,27.92
2019-03-29T14:27:42.364Z,28.25
2019-03-29T14:30:15.546Z,29.21
2019-03-29T14:32:46.895Z,29.27
2019-03-29T14:35:17.686Z,29.77
2019-03-29T14:37:47.211Z,29.10
2019-03-29T14:40:17.002Z,28.04
2019-03-29T14:42:47.064Z,29.62
2019-03-29T14:45:16.618Z,28.37
2019-03-29T14:47:46.015Z,28.13
2019-03-29T14:50:16.166Z,29.03
2019-03-29T14:52:45.488Z,29.11
2019-03-29T14:55:14.986Z,30.07
2019-03-29T14:57:44.526Z,29.36
2019-03-29T15:00:15.186Z,30.36
2019-03-29T15:02:44.523Z,30.41
2019-03-29T15:05:14.172Z,30.79
2019-03-29T15:07:44.750Z,30.26
2019-03-29T15:10:30.785Z,29.93
2019-03-29T15:13:01.006Z,29.66
2019-03-29T15:15:31.225Z,28.61
2019-03-29T15:18:03.707Z,28.78
2019-03-29T15:20:33.305Z,28.54
2019-03-29T15:23:02.914Z,29.13
2019-03-29T15:25:32.788Z,29.22
2019-03-29T15:28:02.188Z,30.53
2019-03-29T15:30:31.913Z,28.44
2019-03-29T15:33:01.674Z,30.57
2019-03-29T15:35:31.598Z,29.40
2019-03-29T15:38:01.233Z,29.42
2019-03-29T15:40:31.643Z,29.32
2019-03-29T15:43:01.899Z,28.44
2019-03-29T15:45:31.573Z,29.40
2019-03-29T15:48:06.251Z,28.70
2019-03-29T15:50:35.871Z,31.06
2019-03-29T15:53:06.720Z,30.00
2019-03-29T15:55:36.160Z,29.14
2019-03-29T15:58:08.035Z,29.52
2019-03-29T16:00:37.398Z,29.06
2019-03-29T16:03:07.297Z,30.11
2019-03-29T16:05:37.732Z,29.78
2019-03-29T16:08:07.281Z,30.21
2019-03-29T16:10:37.082Z,29.86
2019-03-29T16:13:06.944Z,29.66
2019-03-29T16:15:38.513Z,29.53
2019-03-29T16:18:08.235Z,29.23
2019-03-29T16:20:38.076Z,30.75
2019-03-29T16:23:07.783Z,30.84
2019-03-29T16:25:37.141Z,30.30
2019-03-29T16:28:06.469Z,30.06
2019-03-29T16:30:36.261Z,30.72
2019-03-29T16:33:05.644Z,30.62
2019-03-29T16:35:34.961Z,31.40
2019-03-29T16:38:14.609Z,30.78
2019-03-29T16:40:43.915Z,30.56
2019-03-29T16:43:13.281Z,30.81
2019-03-29T16:45:48.105Z,31.29
2019-03-29T16:48:17.203Z,30.23
2019-03-29T16:50:47.666Z,30.98
2019-03-29T16:53:16.926Z,31.65
2019-03-29T16:55:47.571Z,30.85
2019-03-29T16:58:17.070Z,29.45
2019-03-29T17:00:46.396Z,30.48
2019-03-29T17:03:16.007Z,30.31
2019-03-29T17:05:45.423Z,32.43
2019-03-29T17:08:14.879Z,30.69
2019-03-29T17:10:44.262Z,30.64
2019-03-29T17:13:13.630Z,31.51
2019-03-29T17:15:43.252Z,30.93
2019-03-29T17:18:12.619Z,31.54
2019-03-29T17:20:42.183Z,31.53
2019-03-29T17:23:11.684Z,31.13
2019-03-29T17:25:41.293Z,31.52
2019-03-29T17:28:11.960Z,31.98
2019-03-29T17:30:49.852Z,31.37
2019-03-29T17:33:22.299Z,31.86
2019-03-29T17:35:50.511Z,31.73
2019-03-29T17:38:19.788Z,32.42
2019-03-29T17:40:51.538Z,32.96
2019-03-29T17:43:21.089Z,33.31
2019-03-29T17:45:50.435Z,33.08
2019-03-29T17:48:20.559Z,33.96
2019-03-29T17:50:50.228Z,33.48
2019-03-29T17:53:19.671Z,34.87
2019-03-29T17:55:48.972Z,34.89
2019-03-29T17:58:18.303Z,36.75
2019-03-29T18:00:47.789Z,37.31
2019-03-29T18:03:17.404Z,38.18
2019-03-29T18:05:48.100Z,38.50
2019-03-29T18:08:17.414Z,37.47
2019-03-29T18:10:47.658Z,37.87
2019-03-29T18:13:17.225Z,38.08
2019-03-29T18:15:47.131Z,38.61
2019-03-29T18:18:16.593Z,39.63
2019-03-29T18:20:46.183Z,39.17
2019-03-29T18:23:15.687Z,39.52
2019-03-29T18:25:45.015Z,40.00
2019-03-29T18:28:14.590Z,39.60
2019-03-29T18:30:44.504Z,39.29
2019-03-29T18:33:15.290Z,38.96
2019-03-29T18:35:45.454Z,39.61
2019-03-29T18:38:15.564Z,39.53
2019-03-29T18:40:44.875Z,40.16
2019-03-29T18:43:15.650Z,39.97
2019-03-29T18:45:45.230Z,40.79
2019-03-29T18:48:15.195Z,40.12
2019-03-29T18:50:45.501Z,40.58
2019-03-29T18:53:15.750Z,40.82
2019-03-29T18:55:45.113Z,41.23
2019-03-29T18:58:14.549Z,41.43
2019-03-29T19:00:43.907Z,41.30
2019-03-29T19:03:13.172Z,42.15
2019-03-29T19:05:42.528Z,42.17
2019-03-29T19:08:11.958Z,40.88
2019-03-29T19:10:43.939Z,41.73
2019-03-29T19:13:13.602Z,42.04
2019-03-29T19:15:43.834Z,40.63
2019-03-29T19:18:13.216Z,42.02
2019-03-29T19:20:42.836Z,41.70
2019-03-29T19:23:12.154Z,42.03
2019-03-29T19:25:42.357Z,42.43
2019-03-29T19:28:11.618Z,42.43
2019-03-29T19:30:41.423Z,42.77
2019-03-29T19:33:10.692Z,42.17
2019-03-29T19:35:40.003Z,41.60
2019-03-29T19:38:09.781Z,42.99
2019-03-29T19:40:39.491Z,42.99
2019-03-29T19:43:10.218Z,42.54
2019-03-29T19:45:39.519Z,42.54
2019-03-29T19:48:09.063Z,42.80
2019-03-29T19:50:38.584Z,44.00
2019-03-29T19:53:07.985Z,43.34
2019-03-29T19:55:37.666Z,44.55
2019-03-29T19:58:07.530Z,43.81
2019-03-29T20:00:38.595Z,43.81
2019-03-29T20:03:08.300Z,44.23
2019-03-29T20:05:37.730Z,44.23
2019-03-29T20:08:07.299Z,43.24
2019-03-29T20:10:37.052Z,44.08
2019-03-29T20:13:06.384Z,43.22
2019-03-29T20:15:35.651Z,45.55
2019-03-29T20:18:05.216Z,43.72
2019-03-29T20:20:35.317Z,43.35
2019-03-29T20:23:10.847Z,43.35
2019-03-29T20:25:40.079Z,44.32
2019-03-29T20:28:11.004Z,43.75
2019-03-29T20:30:40.320Z,44.00
2019-03-29T20:33:13.048Z,43.71
2019-03-29T20:35:40.506Z,44.48
2019-03-29T20:38:09.705Z,44.13
2019-03-29T20:40:38.961Z,44.66
2019-03-29T20:43:08.254Z,44.05
2019-03-29T20:45:38.466Z,45.26
2019-03-29T20:48:07.655Z,43.51
2019-03-29T20:50:36.958Z,44.10
2019-03-29T20:53:06.316Z,44.62
2019-03-29T20:55:36.757Z,44.84
2019-03-29T20:58:06.031Z,45.35
2019-03-29T21:00:35.322Z,43.54
2019-03-29T21:03:05.110Z,43.98
2019-03-29T21:05:34.360Z,42.79
2019-03-29T21:08:03.690Z,44.20
2019-03-29T21:10:32.827Z,45.71
2019-03-29T21:13:02.330Z,47.76
2019-03-29T21:15:31.909Z,46.34
2019-03-29T21:18:01.123Z,46.91
2019-03-29T21:20:30.306Z,45.96
2019-03-29T21:23:00.563Z,46.64
2019-03-29T21:25:30.067Z,44.34
2019-03-29T21:27:59.275Z,46.27
2019-03-29T21:30:28.513Z,45.38
2019-03-29T21:32:58.408Z,46.14
2019-03-29T21:35:27.856Z,45.90
2019-03-29T21:37:57.148Z,46.09
2019-03-29T21:40:26.327Z,46.71
2019-03-29T21:42:57.219Z,46.16
2019-03-29T21:45:29.061Z,44.86
2019-03-29T21:48:08.443Z,45.38
2019-03-29T21:50:28.626Z,45.56
2019-03-29T21:52:57.870Z,45.29
2019-03-29T21:55:27.063Z,45.29
2019-03-29T21:57:56.355Z,45.62
2019-03-29T22:00:27.813Z,45.90
2019-03-29T22:02:57.057Z,45.48
2019-03-29T22:05:27.243Z,46.57
2019-03-29T22:07:56.435Z,45.54
2019-03-29T22:10:25.591Z,45.87
2019-03-29T22:12:55.446Z,44.96
2019-03-29T22:15:24.970Z,45.80
2019-03-29T22:17:54.297Z,47.06
2019-03-29T22:20:23.549Z,46.23
2019-03-29T22:22:52.762Z,46.47
2019-03-29T22:25:22.174Z,45.72
2019-03-29T22:27:51.393Z,45.89
2019-03-29T22:30:22.046Z,45.36
2019-03-29T22:32:51.841Z,45.38
2019-03-29T22:35:21.150Z,44.74
2019-03-29T22:37:50.336Z,46.75
2019-03-29T22:40:20.236Z,45.09
2019-03-29T22:42:49.467Z,45.93
2019-03-29T22:45:18.753Z,46.36
2019-03-29T22:47:49.917Z,46.29
2019-03-29T22:50:19.474Z,45.31
2019-03-29T22:52:48.973Z,46.23
2019-03-29T22:55:18.275Z,45.76
2019-03-29T22:57:47.441Z,45.63
2019-03-29T23:00:22.825Z,46.35
2019-03-29T23:02:53.007Z,46.49
2019-03-29T23:05:22.410Z,46.05
2019-03-29T23:07:51.878Z,45.68
2019-03-29T23:10:21.032Z,45.75
2019-03-29T23:12:50.234Z,46.42
2019-03-29T23:15:19.470Z,45.74
2019-03-29T23:17:49.395Z,47.47
2019-03-29T23:20:18.686Z,47.04
2019-03-29T23:22:47.882Z,46.13
2019-03-29T23:25:21.312Z,45.34
2019-03-29T23:27:50.550Z,47.75
2019-03-29T23:30:19.873Z,46.24
2019-03-29T23:32:49.633Z,46.06
2019-03-29T23:35:19.132Z,46.07
2019-03-29T23:37:48.276Z,47.06
2019-03-29T23:40:17.534Z,46.27
2019-03-29T23:42:47.214Z,46.40
2019-03-29T23:45:16.388Z,47.07
2019-03-29T23:47:45.977Z,47.77
2019-03-29T23:50:15.327Z,46.17
2019-03-29T23:52:44.501Z,46.91
2019-03-29T23:55:13.700Z,45.78
2019-03-29T23:57:42.954Z,46.05
